Flight Track Log - Related Links

Times and Time Zones

All times are in EDT time to prevent confusion due to time zone crossing. See the N147SW flight status page for this flight to view local times or setup timezone preferences in your user account.

Time Position Orientation Groundspeed Altitude Reporting Facility
EDT Latitude Longitude Course Direction KTS MPH feet Rate Location/Type
Fri 07:06:04 PM 27.9167 -82.7000 270° West 150 173 800  Level Tampa TRACON
Fri 07:06:58 PM 27.9167 -82.7500 270° West 238 274 3,400 1,887 Climbing Tampa TRACON
Fri 07:09:18 PM 27.7228 -82.7556 181° South 320 368 6,900 1,680 Climbing Miami Center
Fri 07:10:18 PM 27.6278 -82.7297 166° South 339 390 9,000 2,250 Climbing Miami Center
Fri 07:11:18 PM 27.5353 -82.6992 164° South 345 397 11,400 2,650 Climbing Miami Center
Fri 07:12:18 PM 27.4378 -82.6825 171° South 350 403 14,300 2,650 Climbing Miami Center
Fri 07:13:18 PM 27.3389 -82.6494 163° South 356 410 16,700 2,050 Climbing Miami Center
Fri 07:14:18 PM 27.2381 -82.6189 165° South 367 422 18,400 1,850 Climbing Miami Center
Fri 07:15:18 PM 27.1369 -82.5858 164° South 378 435 20,400 1,900 Climbing Miami Center
Fri 07:16:18 PM 27.0300 -82.5503 164° South 384 442 22,200 1,300 Climbing Miami Center
Fri 07:17:18 PM 26.9228 -82.5147 164° South 396 456 23,000 400 Climbing Miami Center
Fri 07:18:18 PM 26.8033 -82.4764 164° South 420 483 23,000  Level Miami Center
Fri 07:19:18 PM 26.6817 -82.4356 163° South 443 510 23,000  Level Miami Center
Fri 07:20:18 PM 26.5539 -82.3947 164° South 463 533 23,000  Level Miami Center
Fri 07:21:18 PM 26.4281 -82.3542 164° South 469 540 23,000  Level Miami Center
Fri 07:22:18 PM 26.3000 -82.3133 164° South 475 547 23,000  Level Miami Center
Fri 07:23:18 PM 26.1642 -82.2678 163° South 475 547 23,000  Level Miami Center
Fri 07:24:18 PM 26.0361 -82.2297 165° South 469 540 23,000 -100 Level Miami Center
Fri 07:25:18 PM 25.9206 -82.1900 163° South 477 549 22,800 -1,100 Descending Miami Center
Fri 07:26:18 PM 25.7906 -82.1472 163° South 489 563 20,800 -2,100 Descending Miami Center
Fri 07:27:18 PM 25.6647 -82.1094 165° South 484 557 18,600 -2,100 Descending Miami Center
Fri 07:28:18 PM 25.5406 -82.0719 165° South 473 544 16,600 -1,750 Descending Miami Center
Fri 07:29:18 PM 25.4211 -82.0322 163° South 462 532 15,100 -1,500 Descending Miami Center
Fri 07:30:18 PM 25.3011 -81.9950 164° South 457 526 13,600 -1,450 Descending Miami Center
Fri 07:31:18 PM 25.1833 -81.9578 164° South 447 514 12,200 -1,300 Descending Miami Center
Fri 07:32:18 PM 25.0675 -81.9278 167° South 436 502 11,000 -1,150 Descending Miami Center
Fri 07:33:18 PM 24.9528 -81.9278 180° South 419 482 9,900 -1,300 Descending Miami Center
Fri 07:34:18 PM 24.8547 -81.9214 177° South 390 449 8,400 -1,600 Descending Miami Center
Fri 07:35:18 PM 24.7675 -81.9086 172° South 353 406 6,700 -1,800 Descending Miami Center
Fri 07:36:18 PM 24.7494 -81.8233 103° East 263 303 4,800 -1,850 Descending Miami Center
Fri 07:37:18 PM 24.7097 -81.7644 127° Southeast 246 283 3,000 -1,350 Descending Miami Center
Fri 07:38:18 PM 24.6367 -81.7661 181° South 233 268 2,100 -900 Descending Miami Center
Fri 07:40:00 PM 24.5500 -81.7500 160° South  Level FlightAware Approximate
Fri 07:47:00 PM 24.5561 -81.7596 160° South  Level Estimated
Fri 07:48:00 PM 24.5561 -81.7596 160° South  Level Estimated

Login

Don't have an account? Register now (free) for customized features, flight alerts, and more!